createdAt,value
2024-02-24T00:02:17.834Z,41.66
2024-02-24T00:07:22.768Z,41.10
2024-02-24T00:12:30.748Z,40.33
2024-02-24T00:17:35.438Z,40.27
2024-02-24T00:22:40.761Z,40.51
2024-02-24T00:27:45.754Z,40.52
2024-02-24T00:32:51.881Z,39.89
2024-02-24T00:37:58.667Z,39.61
2024-02-24T00:43:04.266Z,39.33
2024-02-24T00:48:10.739Z,39.35
2024-02-24T00:53:16.197Z,40.07
2024-02-24T00:58:21.790Z,39.91
2024-02-24T01:03:27.555Z,39.58
2024-02-24T01:08:33.296Z,40.40
2024-02-24T01:13:39.206Z,40.55
2024-02-24T01:18:45.181Z,38.57
2024-02-24T01:23:52.150Z,38.77
2024-02-24T01:28:57.288Z,38.02
2024-02-24T01:34:03.244Z,38.65
2024-02-24T01:39:09.480Z,38.64
2024-02-24T01:44:20.656Z,37.45
2024-02-24T01:49:26.143Z,37.29
2024-02-24T01:54:32.255Z,37.87
2024-02-24T01:59:37.966Z,37.93
2024-02-24T02:04:43.219Z,37.59
2024-02-24T02:10:01.673Z,37.19
2024-02-24T02:15:07.545Z,36.93
2024-02-24T02:20:13.259Z,37.17
2024-02-24T02:25:20.185Z,36.18
2024-02-24T02:30:26.423Z,36.38
2024-02-24T02:35:31.664Z,35.96
2024-02-24T02:40:38.932Z,36.55
2024-02-24T02:45:45.020Z,35.32
2024-02-24T02:50:50.476Z,36.14
2024-02-24T02:55:56.610Z,36.27
2024-02-24T03:01:02.661Z,36.42
2024-02-24T03:06:11.377Z,36.49
2024-02-24T03:11:20.709Z,36.44
2024-02-24T03:16:26.289Z,36.29
2024-02-24T03:21:34.502Z,36.78
2024-02-24T03:26:42.555Z,36.50
2024-02-24T03:31:48.595Z,36.12
2024-02-24T03:36:54.490Z,35.93
2024-02-24T03:41:59.779Z,35.52
2024-02-24T03:47:05.872Z,36.33
2024-02-24T03:52:13.049Z,34.97
2024-02-24T03:57:18.752Z,35.54
2024-02-24T04:02:23.772Z,35.62
2024-02-24T04:07:30.082Z,34.68
2024-02-24T04:12:35.881Z,35.76
2024-02-24T04:17:41.389Z,35.38
2024-02-24T04:22:46.948Z,35.53
2024-02-24T04:27:53.142Z,34.64
2024-02-24T04:32:59.250Z,36.08
2024-02-24T04:38:09.774Z,36.28
2024-02-24T04:43:14.940Z,35.86
2024-02-24T04:48:21.207Z,35.33
2024-02-24T04:53:27.913Z,34.37
2024-02-24T04:58:33.437Z,35.02
2024-02-24T05:03:39.041Z,35.47
2024-02-24T05:08:48.521Z,35.61
2024-02-24T05:13:54.801Z,35.72
2024-02-24T05:19:01.407Z,35.20
2024-02-24T05:24:08.597Z,35.60
2024-02-24T05:29:14.495Z,35.54
2024-02-24T05:34:20.054Z,33.25
2024-02-24T05:39:26.865Z,34.99
2024-02-24T05:44:32.127Z,33.44
2024-02-24T05:49:37.095Z,33.52
2024-02-24T05:54:44.523Z,34.32
2024-02-24T05:59:50.548Z,34.01
2024-02-24T06:04:56.738Z,33.15
2024-02-24T06:10:03.671Z,34.33
2024-02-24T06:15:09.581Z,34.67
2024-02-24T06:20:15.859Z,33.67
2024-02-24T06:25:23.859Z,34.78
2024-02-24T06:30:29.172Z,34.19
2024-02-24T06:35:34.755Z,34.57
2024-02-24T06:40:45.626Z,34.50
2024-02-24T06:45:53.074Z,34.30
2024-02-24T06:50:58.805Z,34.72
2024-02-24T06:56:12.458Z,34.89
2024-02-24T07:01:25.114Z,34.38
2024-02-24T07:06:31.248Z,32.56
2024-02-24T07:11:37.246Z,32.25
2024-02-24T07:16:44.701Z,34.16
2024-02-24T07:21:49.795Z,34.01
2024-02-24T07:26:55.201Z,31.43
2024-02-24T07:32:00.237Z,34.28
2024-02-24T07:37:06.216Z,34.08
2024-02-24T07:42:12.752Z,33.67
2024-02-24T07:47:19.262Z,34.31
2024-02-24T07:52:24.880Z,33.12
2024-02-24T07:57:30.548Z,33.63
2024-02-24T08:02:38.014Z,34.20
2024-02-24T08:07:43.221Z,33.55
2024-02-24T08:12:48.512Z,34.07
2024-02-24T08:17:53.858Z,34.11
2024-02-24T08:23:01.837Z,33.93
2024-02-24T08:28:07.201Z,34.32
2024-02-24T08:33:12.389Z,33.63
2024-02-24T08:38:19.231Z,33.59
2024-02-24T08:43:24.513Z,34.20
2024-02-24T08:48:31.363Z,33.85
2024-02-24T08:53:37.221Z,34.18
2024-02-24T08:58:42.860Z,33.92
2024-02-24T09:03:49.025Z,33.94
2024-02-24T09:08:55.033Z,33.89
2024-02-24T09:14:01.149Z,34.14
2024-02-24T09:19:06.927Z,33.61
2024-02-24T09:24:12.838Z,33.86
2024-02-24T09:29:18.711Z,34.51
2024-02-24T09:34:24.470Z,34.17
2024-02-24T09:39:30.990Z,34.31
2024-02-24T09:44:37.259Z,34.09
2024-02-24T09:49:43.781Z,33.90
2024-02-24T09:54:50.262Z,34.34
2024-02-24T09:59:56.870Z,34.19
2024-02-24T10:05:03.186Z,34.12
2024-02-24T10:10:09.768Z,34.53
2024-02-24T10:15:14.776Z,34.76
2024-02-24T10:25:25.414Z,34.52
2024-02-24T10:30:31.377Z,34.88
2024-02-24T10:35:38.251Z,34.77
2024-02-24T10:40:45.268Z,34.86
2024-02-24T10:45:50.528Z,34.99
2024-02-24T10:50:57.184Z,35.00
2024-02-24T10:56:05.246Z,35.03
2024-02-24T11:01:11.314Z,34.79
2024-02-24T11:06:37.548Z,34.97
2024-02-24T11:11:44.793Z,34.76
2024-02-24T11:16:51.180Z,34.90
2024-02-24T11:22:07.903Z,35.10
2024-02-24T11:27:14.594Z,35.25
2024-02-24T11:32:19.931Z,34.92
2024-02-24T11:37:25.414Z,35.12
2024-02-24T11:42:33.382Z,35.52
2024-02-24T11:47:40.594Z,35.49
2024-02-24T11:52:46.413Z,35.51
2024-02-24T11:57:52.747Z,35.67
2024-02-24T12:02:57.948Z,36.01
2024-02-24T12:08:08.034Z,35.99
2024-02-24T12:13:18.430Z,36.46
2024-02-24T12:18:25.178Z,37.06
2024-02-24T12:23:34.195Z,36.97
2024-02-24T12:28:42.251Z,37.63
2024-02-24T12:33:48.579Z,37.80
2024-02-24T12:38:55.539Z,38.51
2024-02-24T12:44:00.794Z,39.16
2024-02-24T12:49:06.155Z,39.04
2024-02-24T12:54:15.191Z,38.69
2024-02-24T12:59:23.748Z,39.40
2024-02-24T13:04:33.212Z,39.11
2024-02-24T13:09:39.848Z,39.26
2024-02-24T13:14:45.198Z,39.87
2024-02-24T13:19:52.610Z,39.75
2024-02-24T13:24:59.146Z,39.65
2024-02-24T13:30:05.175Z,39.66
2024-02-24T13:35:10.976Z,42.08
2024-02-24T13:40:16.222Z,40.09
2024-02-24T13:45:21.931Z,40.74
2024-02-24T13:50:27.947Z,40.37
2024-02-24T13:55:33.664Z,39.26
2024-02-24T14:00:39.614Z,39.91
2024-02-24T14:05:45.408Z,39.43
2024-02-24T14:10:51.951Z,40.40
2024-02-24T14:15:58.015Z,39.97
2024-02-24T14:21:04.046Z,40.52
2024-02-24T14:26:09.849Z,40.14
2024-02-24T14:31:15.750Z,38.09
2024-02-24T14:36:21.456Z,37.84
2024-02-24T14:41:27.744Z,36.78
2024-02-24T14:46:34.896Z,37.22
2024-02-24T14:51:40.072Z,37.63
2024-02-24T14:56:45.324Z,38.19
2024-02-24T15:01:51.389Z,38.93
2024-02-24T15:06:57.256Z,39.21
2024-02-24T15:12:03.601Z,40.62
2024-02-24T15:17:10.238Z,41.15
2024-02-24T15:22:15.756Z,40.55
2024-02-24T15:27:20.847Z,40.95
2024-02-24T15:32:26.107Z,40.67
2024-02-24T15:37:31.307Z,39.65
2024-02-24T15:42:37.672Z,40.18
2024-02-24T15:47:42.773Z,40.41
2024-02-24T15:52:49.300Z,40.34
2024-02-24T15:57:56.680Z,40.73
2024-02-24T16:03:04.833Z,40.98
2024-02-24T16:08:12.962Z,41.13
2024-02-24T16:13:19.028Z,40.20
2024-02-24T16:18:25.138Z,39.40
2024-02-24T16:23:31.295Z,35.65
2024-02-24T16:28:37.112Z,35.66
2024-02-24T16:33:42.969Z,35.61
2024-02-24T16:38:55.027Z,33.91
2024-02-24T16:44:02.146Z,33.93
2024-02-24T16:49:08.615Z,32.94
2024-02-24T16:54:14.866Z,32.44
2024-02-24T16:59:20.031Z,32.16
2024-02-24T17:04:25.308Z,32.03
2024-02-24T17:09:30.369Z,31.09
2024-02-24T17:14:35.526Z,30.03
2024-02-24T17:19:41.149Z,30.00
2024-02-24T17:24:46.555Z,30.90
2024-02-24T17:29:51.584Z,31.30
2024-02-24T17:34:56.769Z,29.76
2024-02-24T17:40:03.227Z,30.41
2024-02-24T17:45:10.127Z,30.36
2024-02-24T17:50:14.649Z,30.39
2024-02-24T17:55:19.803Z,30.03
2024-02-24T18:00:26.873Z,30.48
2024-02-24T18:05:32.572Z,29.86
2024-02-24T18:10:38.303Z,30.35
2024-02-24T18:15:46.948Z,32.42
2024-02-24T18:20:54.462Z,30.34
2024-02-24T18:25:59.935Z,31.77
2024-02-24T18:31:05.925Z,30.95
2024-02-24T18:36:11.670Z,31.31
2024-02-24T18:41:17.918Z,31.46
2024-02-24T18:46:24.935Z,30.85
2024-02-24T18:51:30.831Z,30.98
2024-02-24T18:56:37.926Z,31.39
2024-02-24T19:01:45.045Z,30.84
2024-02-24T19:06:52.091Z,31.27
2024-02-24T19:11:57.198Z,30.65
2024-02-24T19:17:04.221Z,30.40
2024-02-24T19:22:11.336Z,32.83
2024-02-24T19:27:16.496Z,33.31
2024-02-24T19:32:21.742Z,33.50
2024-02-24T19:37:26.198Z,33.59
2024-02-24T19:42:33.882Z,33.65
2024-02-24T19:47:42.066Z,32.74
2024-02-24T19:52:47.574Z,32.84
2024-02-24T19:57:52.674Z,32.59
2024-02-24T20:02:59.404Z,32.23
2024-02-24T20:08:05.160Z,32.25
2024-02-24T20:13:10.449Z,32.21
2024-02-24T20:18:15.471Z,32.10
2024-02-24T20:23:21.699Z,32.89
2024-02-24T20:28:26.862Z,33.62
2024-02-24T20:33:32.659Z,31.69
2024-02-24T20:38:38.622Z,33.22
2024-02-24T20:43:44.793Z,33.98
2024-02-24T20:48:50.541Z,33.96
2024-02-24T20:53:56.196Z,33.72
2024-02-24T20:59:01.314Z,33.15
2024-02-24T21:04:06.777Z,32.52
2024-02-24T21:09:12.062Z,32.21
2024-02-24T21:14:19.189Z,32.72
2024-02-24T21:19:24.048Z,32.95
2024-02-24T21:24:28.883Z,32.96
2024-02-24T21:29:33.747Z,30.85
2024-02-24T21:34:40.325Z,32.61
2024-02-24T21:39:46.110Z,34.08
2024-02-24T21:44:51.809Z,34.53
2024-02-24T21:49:57.163Z,34.34
2024-02-24T21:55:02.290Z,34.45
2024-02-24T22:00:08.661Z,35.40
2024-02-24T22:05:17.541Z,35.61
2024-02-24T22:10:23.309Z,35.02
2024-02-24T22:15:29.989Z,35.23
2024-02-24T22:20:35.949Z,36.30
2024-02-24T22:25:42.527Z,34.89
2024-02-24T22:30:49.369Z,35.54
2024-02-24T22:35:58.368Z,35.24
2024-02-24T22:41:08.991Z,34.69
2024-02-24T22:46:15.595Z,34.81
2024-02-24T22:51:21.144Z,34.06
2024-02-24T22:56:26.508Z,33.28
2024-02-24T23:01:34.074Z,32.43
2024-02-24T23:06:40.517Z,31.65
2024-02-24T23:11:46.907Z,31.98
2024-02-24T23:16:52.794Z,32.12
2024-02-24T23:21:59.064Z,31.33
2024-02-24T23:27:05.998Z,31.31
2024-02-24T23:32:11.538Z,31.54
2024-02-24T23:37:16.637Z,31.52
2024-02-24T23:42:21.919Z,32.00
2024-02-24T23:47:27.512Z,32.27
2024-02-24T23:52:33.149Z,32.22
2024-02-24T23:57:38.800Z,30.97
